TAF EPSY 070830Z 0709/0718 25010KT 9999 FEW035=